createdAt,value
2022-08-03T00:00:23.083Z,0.00
2022-08-03T00:01:23.086Z,0.00
2022-08-03T00:02:23.069Z,0.00
2022-08-03T00:03:23.161Z,0.00
2022-08-03T00:04:23.061Z,0.00
2022-08-03T00:05:23.082Z,0.00
2022-08-03T00:06:23.028Z,0.00
2022-08-03T00:07:23.031Z,0.00
2022-08-03T00:08:23.004Z,0.00
2022-08-03T00:09:23.037Z,0.00
2022-08-03T00:10:22.986Z,0.00
2022-08-03T00:11:22.982Z,0.00
2022-08-03T00:12:22.984Z,0.00
2022-08-03T00:13:22.976Z,0.00
2022-08-03T00:14:22.979Z,0.00
2022-08-03T00:15:22.952Z,0.00
2022-08-03T00:16:23.167Z,0.00
2022-08-03T00:17:22.945Z,0.00
2022-08-03T00:18:22.914Z,0.00
2022-08-03T00:19:22.919Z,0.00
2022-08-03T00:20:22.925Z,0.00
2022-08-03T00:21:22.899Z,0.00
2022-08-03T00:22:22.877Z,0.00
2022-08-03T00:23:22.906Z,0.00
2022-08-03T00:24:22.873Z,0.00
2022-08-03T00:25:22.877Z,0.00
2022-08-03T00:26:22.853Z,0.00
2022-08-03T00:27:22.847Z,0.00
2022-08-03T00:28:22.826Z,0.00
2022-08-03T00:29:22.851Z,0.00
2022-08-03T00:30:22.834Z,0.00
2022-08-03T00:31:40.250Z,0.00
2022-08-03T00:32:24.145Z,0.00
2022-08-03T00:33:22.799Z,0.00
2022-08-03T00:34:36.597Z,0.00
2022-08-03T00:35:32.480Z,0.00
2022-08-03T00:36:22.753Z,0.00
2022-08-03T00:37:22.761Z,0.00
2022-08-03T00:38:22.740Z,0.00
2022-08-03T00:39:22.732Z,0.00
2022-08-03T00:40:22.733Z,0.00
2022-08-03T00:41:22.742Z,0.00
2022-08-03T00:42:22.702Z,0.00
2022-08-03T00:43:22.724Z,0.00
2022-08-03T00:44:22.692Z,0.00
2022-08-03T00:45:22.671Z,0.00
2022-08-03T00:46:22.747Z,0.00
2022-08-03T00:47:22.676Z,0.00
2022-08-03T00:48:33.341Z,0.00
2022-08-03T00:49:22.689Z,0.00
2022-08-03T00:50:22.644Z,0.00
2022-08-03T00:51:22.618Z,0.00
2022-08-03T00:52:22.889Z,0.00
2022-08-03T00:53:22.612Z,0.00
2022-08-03T00:54:22.624Z,0.00
2022-08-03T00:55:22.589Z,0.00
2022-08-03T00:56:22.565Z,0.00
2022-08-03T00:57:22.576Z,0.00
2022-08-03T00:58:22.601Z,0.00
2022-08-03T00:59:22.550Z,0.00
2022-08-03T01:00:22.687Z,0.00
2022-08-03T01:01:22.642Z,0.00
2022-08-03T01:02:22.546Z,0.00
2022-08-03T01:03:22.511Z,0.00
2022-08-03T01:04:22.497Z,0.00
2022-08-03T01:05:22.493Z,0.00
2022-08-03T01:06:22.482Z,0.00
2022-08-03T01:07:22.478Z,0.00
2022-08-03T01:08:22.491Z,0.00
2022-08-03T01:09:22.477Z,0.00
2022-08-03T01:10:22.442Z,0.00
2022-08-03T01:11:22.444Z,0.00
2022-08-03T01:12:22.430Z,0.00
2022-08-03T01:14:01.365Z,0.00
2022-08-03T01:14:22.701Z,0.00
2022-08-03T01:15:22.408Z,0.00
2022-08-03T01:16:22.392Z,0.00
2022-08-03T01:17:22.401Z,0.00
2022-08-03T01:18:22.409Z,0.00
2022-08-03T01:19:22.380Z,0.00
2022-08-03T01:20:22.373Z,0.00
2022-08-03T01:21:22.355Z,0.00
2022-08-03T01:22:22.356Z,0.00
2022-08-03T01:23:22.394Z,0.00
2022-08-03T01:24:22.338Z,0.00
2022-08-03T01:25:22.328Z,0.00
2022-08-03T01:26:22.305Z,0.00
2022-08-03T01:27:22.307Z,0.00
2022-08-03T01:28:22.307Z,0.00
2022-08-03T01:29:22.323Z,0.00
2022-08-03T01:30:22.293Z,0.00
2022-08-03T01:31:22.274Z,0.00
2022-08-03T01:32:58.899Z,0.00
2022-08-03T01:33:22.296Z,0.00
2022-08-03T01:34:22.276Z,0.00
2022-08-03T01:35:22.264Z,0.00
2022-08-03T01:36:22.216Z,0.00
2022-08-03T01:37:22.240Z,0.00
2022-08-03T01:38:22.203Z,0.00
2022-08-03T01:39:22.205Z,0.00
2022-08-03T01:40:22.198Z,0.00
2022-08-03T01:41:22.190Z,0.00
2022-08-03T01:42:22.163Z,0.00
2022-08-03T01:43:55.147Z,0.00
2022-08-03T01:44:31.655Z,0.00
2022-08-03T01:45:22.170Z,0.00
2022-08-03T01:46:22.137Z,0.00
2022-08-03T01:47:22.125Z,0.00
2022-08-03T01:48:22.115Z,0.00
2022-08-03T01:49:22.138Z,0.00
2022-08-03T01:50:22.115Z,0.00
2022-08-03T01:51:22.103Z,0.00
2022-08-03T01:52:22.080Z,0.00
2022-08-03T01:53:22.098Z,0.00
2022-08-03T01:54:22.080Z,0.00
2022-08-03T01:55:22.079Z,0.00
2022-08-03T01:56:22.404Z,0.00
2022-08-03T01:57:22.050Z,0.00
2022-08-03T01:58:22.055Z,0.00
2022-08-03T01:59:22.025Z,0.00
2022-08-03T02:00:22.018Z,0.00
2022-08-03T02:01:22.110Z,0.00
2022-08-03T02:02:32.975Z,0.00
2022-08-03T02:03:21.994Z,0.00
2022-08-03T02:04:21.972Z,0.00
2022-08-03T02:05:21.979Z,0.00
2022-08-03T02:07:02.103Z,0.00
2022-08-03T02:07:21.970Z,0.00
2022-08-03T02:08:21.947Z,0.00
2022-08-03T02:09:21.928Z,0.00
2022-08-03T02:10:34.213Z,0.00
2022-08-03T02:11:21.916Z,0.00
2022-08-03T02:12:21.923Z,0.00
2022-08-03T02:13:21.916Z,0.00
2022-08-03T02:14:21.876Z,0.00
2022-08-03T02:15:21.917Z,0.00
2022-08-03T02:16:21.859Z,0.00
2022-08-03T02:17:38.615Z,0.00
2022-08-03T02:18:21.865Z,0.00
2022-08-03T02:19:21.835Z,0.00
2022-08-03T02:20:21.851Z,0.00
2022-08-03T02:21:21.830Z,0.00
2022-08-03T02:22:21.828Z,0.00
2022-08-03T02:23:21.828Z,0.00
2022-08-03T02:24:21.801Z,0.00
2022-08-03T02:25:21.806Z,0.00
2022-08-03T02:26:21.780Z,0.00
2022-08-03T02:27:21.768Z,0.00
2022-08-03T02:28:21.744Z,0.00
2022-08-03T02:29:21.742Z,0.00
2022-08-03T02:30:21.740Z,0.00
2022-08-03T02:31:21.748Z,0.00
2022-08-03T02:32:21.724Z,0.00
2022-08-03T02:33:21.705Z,0.00
2022-08-03T02:34:21.711Z,0.00
2022-08-03T02:35:21.688Z,0.00
2022-08-03T02:36:21.696Z,0.00
2022-08-03T02:37:21.690Z,0.00
2022-08-03T02:38:21.677Z,0.00
2022-08-03T02:39:21.665Z,0.00
2022-08-03T02:40:21.685Z,0.00
2022-08-03T02:41:21.636Z,0.00
2022-08-03T02:42:21.763Z,0.00
2022-08-03T02:43:21.640Z,0.00
2022-08-03T02:44:21.618Z,0.00
2022-08-03T02:45:21.614Z,0.00
2022-08-03T02:46:21.608Z,0.00
2022-08-03T02:47:21.593Z,0.00
2022-08-03T02:48:21.597Z,0.00
2022-08-03T02:49:49.960Z,0.00
2022-08-03T02:50:21.569Z,0.00
2022-08-03T02:51:21.572Z,0.00
2022-08-03T02:52:21.599Z,0.00
2022-08-03T02:53:21.543Z,0.00
2022-08-03T02:54:21.528Z,0.00
2022-08-03T02:55:21.505Z,0.00
2022-08-03T02:56:21.515Z,0.00
2022-08-03T02:57:21.496Z,0.00
2022-08-03T02:58:21.513Z,0.00
2022-08-03T02:59:21.466Z,0.00
2022-08-03T03:00:27.986Z,0.00
2022-08-03T03:01:21.530Z,0.00
2022-08-03T03:02:21.452Z,0.00
2022-08-03T03:03:21.455Z,0.00
2022-08-03T03:04:21.434Z,0.00
2022-08-03T03:05:54.774Z,0.00
2022-08-03T03:06:21.414Z,0.00
2022-08-03T03:07:21.420Z,0.00
2022-08-03T03:08:26.138Z,0.00
2022-08-03T03:09:21.401Z,0.00
2022-08-03T03:10:21.362Z,0.00
2022-08-03T03:11:21.377Z,0.00
2022-08-03T03:12:21.373Z,0.00
2022-08-03T03:13:21.374Z,0.00
2022-08-03T03:14:33.144Z,1.00
2022-08-03T03:15:21.355Z,0.00
2022-08-03T03:16:21.306Z,0.00
2022-08-03T03:17:21.266Z,1.00
2022-08-03T03:18:22.926Z,1.00
2022-08-03T03:19:23.858Z,1.00
2022-08-03T03:20:26.730Z,0.00
2022-08-03T03:21:21.298Z,0.00
2022-08-03T03:22:21.280Z,0.00
2022-08-03T03:23:21.269Z,0.00
2022-08-03T03:24:21.270Z,0.00
2022-08-03T03:25:21.205Z,1.00
2022-08-03T03:26:21.220Z,0.00
2022-08-03T03:27:21.215Z,0.00
2022-08-03T03:28:21.200Z,0.00
2022-08-03T03:29:21.169Z,1.00
2022-08-03T03:30:21.140Z,1.00
2022-08-03T03:31:21.167Z,6.00
2022-08-03T03:32:21.113Z,2.00
2022-08-03T03:33:21.121Z,2.00
2022-08-03T03:34:21.099Z,1.00
2022-08-03T03:35:21.113Z,2.00
2022-08-03T03:36:21.073Z,4.00
2022-08-03T03:37:21.069Z,4.00
2022-08-03T03:38:21.073Z,4.00
2022-08-03T03:39:21.052Z,4.00
2022-08-03T03:40:21.041Z,4.00
2022-08-03T03:41:21.049Z,5.00
2022-08-03T03:42:21.054Z,8.00
2022-08-03T03:43:21.021Z,6.00
2022-08-03T03:44:21.021Z,9.00
2022-08-03T03:45:21.011Z,10.00
2022-08-03T03:46:20.993Z,12.00
2022-08-03T03:47:32.982Z,14.00
2022-08-03T03:48:20.971Z,15.00
2022-08-03T03:49:20.995Z,19.00
2022-08-03T03:50:20.950Z,20.00
2022-08-03T03:51:20.961Z,21.00
2022-08-03T03:52:20.927Z,24.00
2022-08-03T03:53:20.927Z,28.00
2022-08-03T03:54:20.963Z,27.00
2022-08-03T03:55:20.906Z,33.00
2022-08-03T03:56:20.907Z,33.00
2022-08-03T03:57:20.891Z,40.00
2022-08-03T03:58:20.890Z,34.00
2022-08-03T03:59:20.876Z,34.00
2022-08-03T04:00:20.852Z,38.00
2022-08-03T04:01:20.935Z,41.00
2022-08-03T04:02:20.838Z,28.00
2022-08-03T04:03:20.835Z,38.00
2022-08-03T04:04:20.821Z,53.00
2022-08-03T04:05:20.813Z,76.00
2022-08-03T04:06:20.805Z,121.00
2022-08-03T04:07:20.808Z,199.00
2022-08-03T04:08:20.797Z,262.00
2022-08-03T04:09:20.773Z,300.00
2022-08-03T04:10:20.779Z,1465.00
2022-08-03T04:11:20.760Z,1616.00
2022-08-03T04:12:20.776Z,3028.00
2022-08-03T04:13:20.738Z,2742.00
2022-08-03T04:14:20.747Z,1127.00
2022-08-03T04:15:20.720Z,843.00
2022-08-03T04:16:20.714Z,809.00
2022-08-03T04:17:20.797Z,820.00
2022-08-03T04:18:20.697Z,848.00
2022-08-03T04:19:23.343Z,884.00
2022-08-03T04:20:20.678Z,910.00
2022-08-03T04:21:20.661Z,936.00
2022-08-03T04:22:20.678Z,978.00
2022-08-03T04:23:20.647Z,1036.00
2022-08-03T04:24:20.641Z,1090.00
2022-08-03T04:25:20.625Z,1124.00
2022-08-03T04:26:20.625Z,1147.00
2022-08-03T04:27:20.644Z,1206.00
2022-08-03T04:28:29.952Z,1314.00
2022-08-03T04:29:20.596Z,1391.00
2022-08-03T04:30:20.594Z,1386.00
2022-08-03T04:31:20.574Z,1594.00
2022-08-03T04:32:20.591Z,1698.00
2022-08-03T04:33:20.566Z,1900.00
2022-08-03T04:34:20.551Z,1943.00
2022-08-03T04:35:20.540Z,1456.00
2022-08-03T04:36:20.530Z,1012.00
2022-08-03T04:37:20.541Z,1041.00
2022-08-03T04:38:20.517Z,1132.00
2022-08-03T04:39:20.515Z,1172.00
2022-08-03T04:40:20.505Z,1068.00
2022-08-03T04:41:20.495Z,1138.00
2022-08-03T04:42:20.827Z,1174.00
2022-08-03T04:43:20.479Z,1232.00
2022-08-03T04:44:20.469Z,1314.00
2022-08-03T04:45:20.464Z,1465.00
2022-08-03T04:46:20.458Z,1750.00
2022-08-03T04:47:20.448Z,1498.00
2022-08-03T04:48:20.424Z,1674.00
2022-08-03T04:49:20.479Z,1905.00
2022-08-03T04:50:21.668Z,2181.00
2022-08-03T04:51:20.400Z,2273.00
2022-08-03T04:52:20.419Z,2203.00
2022-08-03T04:53:20.382Z,2324.00
2022-08-03T04:54:20.391Z,2413.00
2022-08-03T04:55:20.356Z,2396.00
2022-08-03T04:56:20.512Z,1875.00
2022-08-03T04:57:23.110Z,2437.00
2022-08-03T04:58:20.351Z,2675.00
2022-08-03T04:59:20.325Z,3104.00
2022-08-03T05:00:20.326Z,3290.00
2022-08-03T05:01:20.432Z,2655.00
2022-08-03T05:02:20.298Z,2365.00
2022-08-03T05:03:25.017Z,4271.00
2022-08-03T05:04:20.281Z,4601.00
2022-08-03T05:05:20.293Z,1827.00
2022-08-03T05:06:20.262Z,425.00
2022-08-03T05:07:24.808Z,356.00
2022-08-03T05:08:27.687Z,351.00
2022-08-03T05:09:25.942Z,363.00
2022-08-03T05:10:20.255Z,386.00
2022-08-03T05:11:20.214Z,414.00
2022-08-03T05:12:32.566Z,378.00
2022-08-03T05:13:28.712Z,293.00
2022-08-03T05:14:28.352Z,274.00
2022-08-03T05:15:28.254Z,277.00
2022-08-03T05:16:20.174Z,279.00
2022-08-03T05:17:20.184Z,281.00
2022-08-03T05:18:20.166Z,282.00
2022-08-03T05:19:20.164Z,274.00
2022-08-03T05:20:20.150Z,279.00
2022-08-03T05:21:20.124Z,280.00
2022-08-03T05:22:20.134Z,281.00
2022-08-03T05:23:20.124Z,281.00
2022-08-03T05:24:20.136Z,287.00
2022-08-03T05:25:23.361Z,286.00
2022-08-03T05:26:20.099Z,288.00
2022-08-03T05:27:20.077Z,284.00
2022-08-03T05:28:20.074Z,286.00
2022-08-03T05:29:20.066Z,287.00
2022-08-03T05:30:31.239Z,286.00
2022-08-03T05:31:20.065Z,287.00
2022-08-03T05:32:20.366Z,287.00
2022-08-03T05:33:20.093Z,287.00
2022-08-03T05:34:20.053Z,285.00
2022-08-03T05:35:57.882Z,287.00
2022-08-03T05:36:20.102Z,286.00
2022-08-03T05:37:20.065Z,285.00
2022-08-03T05:38:28.243Z,291.00
2022-08-03T05:39:19.979Z,291.00
2022-08-03T05:40:19.982Z,293.00
2022-08-03T05:41:21.731Z,295.00
2022-08-03T05:42:19.980Z,290.00
2022-08-03T05:43:19.932Z,291.00
2022-08-03T05:44:19.925Z,295.00
2022-08-03T05:45:20.003Z,294.00
2022-08-03T05:46:19.922Z,299.00
2022-08-03T05:47:19.902Z,298.00
2022-08-03T05:48:19.908Z,293.00
2022-08-03T05:49:19.916Z,294.00
2022-08-03T05:50:19.873Z,293.00
2022-08-03T05:51:19.871Z,293.00
2022-08-03T05:52:19.873Z,294.00
2022-08-03T05:53:19.904Z,293.00
2022-08-03T05:54:19.916Z,294.00
2022-08-03T05:55:19.817Z,295.00
2022-08-03T05:56:19.821Z,292.00
2022-08-03T05:57:19.842Z,286.00
2022-08-03T05:58:19.819Z,283.00
2022-08-03T05:59:37.707Z,288.00
2022-08-03T06:00:19.791Z,288.00
2022-08-03T06:01:19.816Z,284.00
2022-08-03T06:02:19.775Z,290.00
2022-08-03T06:03:19.776Z,288.00
2022-08-03T06:04:19.746Z,286.00
2022-08-03T06:05:19.734Z,283.00
2022-08-03T06:06:19.730Z,285.00
2022-08-03T06:07:19.724Z,284.00
2022-08-03T06:08:19.736Z,283.00
2022-08-03T06:09:19.700Z,284.00
2022-08-03T06:10:37.445Z,279.00
2022-08-03T06:11:19.681Z,277.00
2022-08-03T06:12:20.239Z,278.00
2022-08-03T06:13:19.666Z,277.00
2022-08-03T06:14:19.668Z,275.00
2022-08-03T06:15:19.649Z,277.00
2022-08-03T06:16:19.639Z,277.00
2022-08-03T06:17:19.630Z,278.00
2022-08-03T06:18:19.633Z,281.00
2022-08-03T06:19:19.641Z,277.00
2022-08-03T06:20:19.614Z,275.00
2022-08-03T06:21:19.591Z,270.00
2022-08-03T06:22:19.586Z,270.00
2022-08-03T06:23:19.586Z,269.00
2022-08-03T06:24:19.592Z,269.00
2022-08-03T06:25:21.297Z,269.00
2022-08-03T06:26:19.556Z,271.00
2022-08-03T06:27:19.585Z,266.00
2022-08-03T06:28:51.191Z,264.00
2022-08-03T06:29:19.549Z,264.00
2022-08-03T06:30:21.420Z,265.00
2022-08-03T06:31:19.498Z,267.00
2022-08-03T06:32:19.864Z,268.00
2022-08-03T06:33:19.480Z,271.00
2022-08-03T06:34:34.802Z,265.00
2022-08-03T06:35:19.481Z,269.00
2022-08-03T06:36:19.458Z,267.00
2022-08-03T06:37:19.446Z,265.00
2022-08-03T06:38:19.447Z,264.00
2022-08-03T06:39:19.463Z,263.00
2022-08-03T06:40:24.286Z,261.00
2022-08-03T06:41:19.427Z,262.00
2022-08-03T06:42:19.410Z,262.00
2022-08-03T06:43:19.413Z,261.00
2022-08-03T06:44:19.412Z,261.00
2022-08-03T06:45:19.418Z,256.00
2022-08-03T06:46:19.387Z,261.00
2022-08-03T06:47:19.378Z,262.00
2022-08-03T06:48:19.354Z,260.00
2022-08-03T06:49:19.661Z,260.00
2022-08-03T06:50:22.947Z,261.00
2022-08-03T06:51:19.363Z,259.00
2022-08-03T06:52:44.871Z,255.00
2022-08-03T06:53:21.213Z,258.00
2022-08-03T06:54:19.293Z,257.00
2022-08-03T06:55:19.299Z,264.00
2022-08-03T06:56:19.284Z,257.00
2022-08-03T06:57:19.264Z,256.00
2022-08-03T06:58:19.260Z,256.00
2022-08-03T07:00:11.052Z,251.00
2022-08-03T07:00:19.277Z,254.00
2022-08-03T07:01:19.364Z,255.00
2022-08-03T07:02:19.717Z,261.00
2022-08-03T07:03:19.216Z,268.00
2022-08-03T07:04:19.202Z,254.00
2022-08-03T07:05:19.190Z,252.00
2022-08-03T07:06:19.206Z,250.00
2022-08-03T07:07:19.178Z,249.00
2022-08-03T07:08:19.171Z,250.00
2022-08-03T07:09:19.164Z,251.00
2022-08-03T07:10:19.149Z,247.00
2022-08-03T07:11:19.161Z,249.00
2022-08-03T07:12:19.230Z,256.00
2022-08-03T07:13:19.119Z,247.00
2022-08-03T07:14:19.114Z,247.00
2022-08-03T07:15:20.190Z,245.00
2022-08-03T07:16:19.127Z,245.00
2022-08-03T07:17:19.081Z,246.00
2022-08-03T07:18:27.573Z,243.00
2022-08-03T07:19:19.081Z,244.00
2022-08-03T07:20:19.068Z,241.00
2022-08-03T07:21:19.049Z,242.00
2022-08-03T07:22:19.295Z,239.00
2022-08-03T07:23:19.489Z,242.00
2022-08-03T07:24:19.028Z,241.00
2022-08-03T07:25:19.009Z,241.00
2022-08-03T07:26:19.005Z,245.00
2022-08-03T07:27:19.007Z,243.00
2022-08-03T07:28:18.986Z,240.00
2022-08-03T07:29:18.971Z,236.00
2022-08-03T07:30:18.965Z,238.00
2022-08-03T07:31:18.953Z,234.00
2022-08-03T07:32:19.334Z,233.00
2022-08-03T07:33:18.933Z,236.00
2022-08-03T07:34:24.418Z,236.00
2022-08-03T07:35:25.069Z,233.00
2022-08-03T07:36:18.919Z,233.00
2022-08-03T07:37:18.935Z,231.00
2022-08-03T07:38:21.029Z,231.00
2022-08-03T07:39:18.886Z,231.00
2022-08-03T07:40:18.886Z,229.00
2022-08-03T07:41:18.869Z,230.00
2022-08-03T07:42:19.131Z,231.00
2022-08-03T07:43:18.867Z,230.00
2022-08-03T07:44:18.850Z,230.00
2022-08-03T07:45:18.831Z,230.00
2022-08-03T07:46:18.856Z,232.00
2022-08-03T07:47:22.489Z,233.00
2022-08-03T07:48:18.842Z,223.00
2022-08-03T07:49:18.888Z,223.00
2022-08-03T07:50:18.786Z,223.00
2022-08-03T07:51:18.779Z,222.00
2022-08-03T07:52:19.175Z,222.00
2022-08-03T07:53:26.815Z,221.00
2022-08-03T07:54:18.747Z,221.00
2022-08-03T07:55:18.737Z,223.00
2022-08-03T07:56:18.732Z,222.00
2022-08-03T07:57:18.757Z,222.00
2022-08-03T07:58:23.677Z,220.00
2022-08-03T07:59:18.705Z,219.00
2022-08-03T08:00:18.703Z,219.00
2022-08-03T08:01:18.766Z,219.00
2022-08-03T08:02:18.936Z,222.00
2022-08-03T08:03:18.681Z,229.00
2022-08-03T08:04:18.675Z,210.00
2022-08-03T08:05:18.657Z,218.00
2022-08-03T08:06:18.655Z,211.00
2022-08-03T08:07:18.653Z,211.00
2022-08-03T08:08:18.645Z,211.00
2022-08-03T08:09:18.626Z,215.00
2022-08-03T08:10:18.663Z,210.00
2022-08-03T08:11:18.614Z,212.00
2022-08-03T08:12:18.897Z,207.00
2022-08-03T08:13:18.611Z,210.00
2022-08-03T08:14:18.634Z,213.00
2022-08-03T08:15:18.629Z,204.00
2022-08-03T08:16:18.636Z,211.00
2022-08-03T08:17:18.620Z,207.00
2022-08-03T08:18:18.615Z,204.00
2022-08-03T08:19:18.619Z,205.00
2022-08-03T08:20:18.901Z,203.00
2022-08-03T08:21:18.640Z,201.00
2022-08-03T08:22:18.890Z,197.00
2022-08-03T08:23:38.655Z,201.00
2022-08-03T08:24:20.414Z,199.00
2022-08-03T08:25:19.470Z,199.00
2022-08-03T08:26:18.570Z,199.00
2022-08-03T08:27:18.523Z,200.00
2022-08-03T08:28:29.014Z,198.00
2022-08-03T08:29:18.549Z,196.00
2022-08-03T08:30:19.361Z,196.00
2022-08-03T08:31:18.475Z,196.00
2022-08-03T08:32:18.887Z,195.00
2022-08-03T08:33:22.554Z,198.00
2022-08-03T08:34:18.480Z,196.00
2022-08-03T08:35:18.397Z,195.00
2022-08-03T08:36:18.385Z,199.00
2022-08-03T08:37:18.373Z,199.00
2022-08-03T08:38:19.006Z,195.00
2022-08-03T08:39:18.444Z,193.00
2022-08-03T08:40:18.340Z,191.00
2022-08-03T08:41:18.338Z,192.00
2022-08-03T08:42:18.629Z,189.00
2022-08-03T08:43:18.328Z,192.00
2022-08-03T08:44:18.329Z,189.00
2022-08-03T08:45:18.294Z,191.00
2022-08-03T08:46:23.310Z,188.00
2022-08-03T08:47:18.322Z,189.00
2022-08-03T08:48:18.403Z,189.00
2022-08-03T08:49:18.364Z,187.00
2022-08-03T08:50:27.880Z,188.00
2022-08-03T08:51:18.249Z,188.00
2022-08-03T08:52:25.023Z,184.00
2022-08-03T08:53:20.716Z,185.00
2022-08-03T08:54:18.345Z,188.00
2022-08-03T08:55:18.235Z,187.00
2022-08-03T08:56:18.250Z,193.00
2022-08-03T08:57:40.763Z,186.00
2022-08-03T08:58:20.896Z,186.00
2022-08-03T08:59:18.187Z,184.00
2022-08-03T09:00:18.174Z,185.00
2022-08-03T09:01:18.443Z,186.00
2022-08-03T09:02:18.447Z,193.00
2022-08-03T09:03:22.681Z,178.00
2022-08-03T09:04:18.131Z,181.00
2022-08-03T09:05:18.418Z,184.00
2022-08-03T09:06:18.105Z,184.00
2022-08-03T09:07:20.340Z,180.00
2022-08-03T09:08:18.087Z,182.00
2022-08-03T09:09:28.630Z,181.00
2022-08-03T09:10:18.808Z,180.00
2022-08-03T09:11:18.067Z,178.00
2022-08-03T09:12:40.839Z,178.00
2022-08-03T09:13:18.055Z,178.00
2022-08-03T09:14:34.189Z,177.00
2022-08-03T09:15:18.115Z,176.00
2022-08-03T09:16:18.030Z,179.00
2022-08-03T09:17:18.076Z,177.00
2022-08-03T09:18:17.994Z,177.00
2022-08-03T09:19:17.999Z,179.00
2022-08-03T09:20:18.050Z,178.00
2022-08-03T09:21:34.424Z,177.00
2022-08-03T09:22:18.668Z,179.00
2022-08-03T09:23:51.845Z,177.00
2022-08-03T09:24:37.275Z,176.00
2022-08-03T09:25:25.289Z,175.00
2022-08-03T09:26:17.952Z,178.00
2022-08-03T09:27:18.189Z,173.00
2022-08-03T09:28:52.589Z,174.00
2022-08-03T09:29:17.915Z,176.00
2022-08-03T09:30:33.508Z,177.00
2022-08-03T09:31:17.902Z,174.00
2022-08-03T09:32:17.880Z,173.00
2022-08-03T09:33:17.893Z,173.00
2022-08-03T09:34:17.943Z,173.00
2022-08-03T09:35:27.888Z,173.00
2022-08-03T09:36:17.922Z,173.00
2022-08-03T09:37:18.122Z,173.00
2022-08-03T09:38:17.815Z,173.00
2022-08-03T09:39:17.817Z,173.00
2022-08-03T09:40:17.798Z,173.00
2022-08-03T09:41:17.823Z,175.00
2022-08-03T09:42:18.435Z,173.00
2022-08-03T09:43:17.771Z,173.00
2022-08-03T09:44:25.865Z,173.00
2022-08-03T09:45:17.770Z,172.00
2022-08-03T09:46:17.794Z,172.00
2022-08-03T09:47:18.697Z,172.00
2022-08-03T09:48:17.725Z,173.00
2022-08-03T09:49:17.812Z,173.00
2022-08-03T09:50:17.730Z,172.00
2022-08-03T09:52:23.034Z,172.00
2022-08-03T09:52:52.094Z,172.00
2022-08-03T09:53:17.689Z,172.00
2022-08-03T09:54:20.651Z,172.00
2022-08-03T09:56:30.746Z,172.00
2022-08-03T09:56:41.153Z,172.00
2022-08-03T09:57:17.819Z,172.00
2022-08-03T09:58:17.640Z,171.00
2022-08-03T09:59:17.629Z,171.00
2022-08-03T10:00:19.987Z,171.00
2022-08-03T10:01:24.078Z,172.00
2022-08-03T10:02:17.746Z,172.00
2022-08-03T10:03:17.746Z,172.00
2022-08-03T10:04:17.597Z,171.00
2022-08-03T10:05:19.979Z,171.00
2022-08-03T10:06:17.620Z,171.00
2022-08-03T10:07:17.807Z,172.00
2022-08-03T10:08:17.558Z,171.00
2022-08-03T10:09:17.544Z,171.00
2022-08-03T10:10:31.081Z,171.00
2022-08-03T10:11:17.530Z,171.00
2022-08-03T10:12:17.529Z,171.00
2022-08-03T10:13:17.532Z,170.00
2022-08-03T10:14:18.233Z,170.00
2022-08-03T10:16:21.762Z,171.00
2022-08-03T10:16:29.624Z,171.00
2022-08-03T10:17:17.762Z,171.00
2022-08-03T10:18:17.457Z,171.00
2022-08-03T10:19:17.489Z,171.00
2022-08-03T10:20:17.448Z,171.00
2022-08-03T10:21:17.467Z,171.00
2022-08-03T10:22:17.455Z,171.00
2022-08-03T10:23:17.444Z,171.00
2022-08-03T10:24:17.405Z,171.00
2022-08-03T10:25:17.402Z,171.00
2022-08-03T10:26:17.518Z,171.00
2022-08-03T10:27:17.623Z,171.00
2022-08-03T10:28:17.411Z,171.00
2022-08-03T10:29:17.412Z,171.00
2022-08-03T10:30:17.350Z,171.00
2022-08-03T10:31:17.345Z,172.00
2022-08-03T10:32:18.243Z,172.00
2022-08-03T10:33:50.292Z,171.00
2022-08-03T10:34:17.344Z,171.00
2022-08-03T10:35:20.517Z,172.00
2022-08-03T10:36:17.294Z,171.00
2022-08-03T10:37:17.588Z,172.00
2022-08-03T10:38:18.612Z,171.00
2022-08-03T10:39:18.239Z,172.00
2022-08-03T10:40:33.405Z,171.00
2022-08-03T10:41:17.403Z,171.00
2022-08-03T10:42:17.388Z,170.00
2022-08-03T10:43:18.481Z,170.00
2022-08-03T10:44:17.247Z,171.00
2022-08-03T10:45:17.256Z,171.00
2022-08-03T10:46:17.221Z,171.00
2022-08-03T10:47:17.522Z,171.00
2022-08-03T10:48:17.234Z,171.00
2022-08-03T10:49:33.991Z,171.00
2022-08-03T10:50:17.199Z,171.00
2022-08-03T10:51:17.185Z,171.00
2022-08-03T10:52:31.446Z,171.00
2022-08-03T10:53:20.075Z,171.00
2022-08-03T10:54:17.163Z,171.00
2022-08-03T10:55:17.159Z,171.00
2022-08-03T10:56:17.114Z,171.00
2022-08-03T10:57:17.365Z,171.00
2022-08-03T10:58:30.288Z,171.00
2022-08-03T10:59:27.552Z,171.00
2022-08-03T11:00:17.089Z,171.00
2022-08-03T11:01:17.201Z,171.00
2022-08-03T11:02:17.076Z,171.00
2022-08-03T11:03:17.107Z,171.00
2022-08-03T11:04:17.198Z,171.00
2022-08-03T11:05:17.047Z,171.00
2022-08-03T11:06:17.030Z,171.00
2022-08-03T11:07:17.228Z,171.00
2022-08-03T11:08:17.344Z,171.00
2022-08-03T11:09:17.014Z,171.00
2022-08-03T11:10:16.988Z,171.00
2022-08-03T11:11:16.991Z,170.00
2022-08-03T11:12:16.975Z,170.00
2022-08-03T11:13:17.026Z,170.00
2022-08-03T11:14:16.989Z,170.00
2022-08-03T11:15:16.949Z,170.00
2022-08-03T11:16:19.879Z,170.00
2022-08-03T11:17:17.372Z,170.00
2022-08-03T11:18:16.929Z,170.00
2022-08-03T11:19:16.930Z,170.00
2022-08-03T11:20:16.901Z,170.00
2022-08-03T11:21:16.899Z,170.00
2022-08-03T11:22:16.885Z,171.00
2022-08-03T11:23:16.883Z,170.00
2022-08-03T11:24:16.881Z,171.00
2022-08-03T11:25:54.249Z,171.00
2022-08-03T11:26:16.853Z,171.00
2022-08-03T11:27:17.127Z,171.00
2022-08-03T11:28:16.836Z,171.00
2022-08-03T11:29:16.859Z,171.00
2022-08-03T11:30:16.830Z,171.00
2022-08-03T11:31:32.957Z,172.00
2022-08-03T11:32:19.563Z,172.00
2022-08-03T11:33:16.791Z,170.00
2022-08-03T11:34:16.780Z,171.00
2022-08-03T11:35:16.802Z,171.00
2022-08-03T11:36:32.262Z,171.00
2022-08-03T11:37:17.097Z,171.00
2022-08-03T11:38:16.742Z,171.00
2022-08-03T11:39:17.206Z,171.00
2022-08-03T11:40:16.743Z,171.00
2022-08-03T11:41:16.718Z,171.00
2022-08-03T11:42:16.709Z,171.00
2022-08-03T11:43:16.710Z,171.00
2022-08-03T11:44:16.885Z,171.00
2022-08-03T11:45:16.706Z,171.00
2022-08-03T11:46:28.089Z,171.00
2022-08-03T11:47:16.979Z,171.00
2022-08-03T11:48:16.654Z,171.00
2022-08-03T11:49:16.721Z,171.00
2022-08-03T11:50:16.656Z,171.00
2022-08-03T11:51:16.632Z,171.00
2022-08-03T11:52:16.635Z,171.00
2022-08-03T11:53:16.613Z,171.00
2022-08-03T11:54:16.605Z,171.00
2022-08-03T11:55:16.613Z,171.00
2022-08-03T11:56:16.593Z,171.00
2022-08-03T11:57:16.768Z,171.00
2022-08-03T11:59:12.805Z,172.00
2022-08-03T11:59:24.365Z,171.00
2022-08-03T12:00:16.590Z,172.00
2022-08-03T12:01:21.242Z,172.00
2022-08-03T12:02:16.547Z,172.00
2022-08-03T12:03:16.587Z,173.00
2022-08-03T12:04:16.711Z,172.00
2022-08-03T12:05:16.506Z,173.00
2022-08-03T12:06:16.512Z,172.00
2022-08-03T12:08:02.559Z,172.00
2022-08-03T12:08:16.642Z,174.00
2022-08-03T12:09:16.473Z,172.00
2022-08-03T12:10:16.464Z,176.00
2022-08-03T12:11:16.485Z,174.00
2022-08-03T12:12:16.445Z,176.00
2022-08-03T12:14:37.373Z,174.00
2022-08-03T12:14:54.154Z,175.00
2022-08-03T12:15:16.446Z,174.00
2022-08-03T12:16:16.428Z,174.00
2022-08-03T12:17:16.709Z,178.00
2022-08-03T12:18:16.391Z,178.00
2022-08-03T12:19:16.384Z,172.00
2022-08-03T12:20:16.379Z,178.00
2022-08-03T12:21:16.387Z,180.00
2022-08-03T12:22:16.353Z,177.00
2022-08-03T12:23:16.347Z,179.00
2022-08-03T12:24:16.339Z,180.00
2022-08-03T12:25:16.411Z,180.00
2022-08-03T12:26:16.364Z,180.00
2022-08-03T12:27:16.595Z,180.00
2022-08-03T12:28:28.385Z,177.00
2022-08-03T12:29:16.301Z,179.00
2022-08-03T12:30:16.285Z,188.00
2022-08-03T12:31:16.270Z,186.00
2022-08-03T12:32:16.281Z,186.00
2022-08-03T12:33:16.303Z,187.00
2022-08-03T12:34:16.253Z,188.00
2022-08-03T12:35:16.300Z,187.00
2022-08-03T12:36:16.230Z,186.00
2022-08-03T12:37:22.263Z,185.00
2022-08-03T12:38:16.223Z,185.00
2022-08-03T12:39:16.209Z,185.00
2022-08-03T12:40:20.570Z,187.00
2022-08-03T12:41:16.206Z,187.00